Hauptseite
METAR-TAF:

METAR-TAF

Flughäfen :

Militärflugplatz Beauvechain

Beauvechain, Belgien

Breite: 50-45N, Länge: 004-46E, Höhe: 105 m

Beobachtung

Neuester Wetterbericht von vor 32 Minuten, um 05:25 UTC
Wind 7 kt aus Ost/Nordost
Temperatur 1°C
Luftfeuchtigkeit 93%
Luftdruck 1021 hPa
Sichtweite: 4500 m
Aufgelockert bewölkt in der Höhe von 500 ft
Durchbrochene Bewölkung in der Höhe von 700 ft
feuchter Dunst

METAR: EBBE 190525Z 06007KT 4500 BR SCT005 BKN007 01/00 Q1021 YLO YLO

Zeit: 06:57 (05:57 UTC)


TAF: fehlend

Wetterbeobachtungen und Prognosen von mehr als 4000 Flughäfen (METAR und TAF Bericht).

Die verfügbaren Stationen werden durch gelbe und rote Markierungen auf der Karte dargestellt.

Führen Sie die Maus auf sie, um den Namen der Station zu sehen.

Darauf klicken, um die Beobachtung von Wetterbeobachtungen und Prognosen zu sehen.

Um die Karte zu ändern : klicken Sie auf den grünen Tasten mit einem schwarzen Kreuz Zum Vergrößern, auf den grünen Button mit einem Gedankenstrich zu verkleinern, oder auf die grünen Pfeile für benachbarte Karten.


METAR-TAF: